createdAt,value
2018-06-18T00:01:08.444Z,20.46
2018-06-18T00:03:41.883Z,20.34
2018-06-18T00:06:10.222Z,20.33
2018-06-18T00:08:38.512Z,20.35
2018-06-18T00:11:06.880Z,20.34
2018-06-18T00:13:58.011Z,20.46
2018-06-18T00:16:26.740Z,20.47
2018-06-18T00:18:55.069Z,20.52
2018-06-18T00:21:23.338Z,20.58
2018-06-18T00:23:51.644Z,20.64
2018-06-18T00:26:19.946Z,20.70
2018-06-18T00:28:48.242Z,20.62
2018-06-18T00:31:16.757Z,20.49
2018-06-18T00:33:54.552Z,20.54
2018-06-18T00:36:22.852Z,20.58
2018-06-18T00:38:59.326Z,20.59
2018-06-18T00:41:27.730Z,20.70
2018-06-18T00:43:56.129Z,20.72
2018-06-18T00:46:24.432Z,20.77
2018-06-18T00:48:53.962Z,20.74
2018-06-18T00:51:22.676Z,20.66
2018-06-18T00:53:51.516Z,20.65
2018-06-18T00:56:19.838Z,20.61
2018-06-18T00:58:48.218Z,20.55
2018-06-18T01:01:16.531Z,20.60
2018-06-18T01:06:51.213Z,20.73
2018-06-18T01:09:19.527Z,20.60
2018-06-18T01:11:47.824Z,20.57
2018-06-18T01:14:22.146Z,20.54
2018-06-18T01:16:50.436Z,20.29
2018-06-18T01:19:18.720Z,20.24
2018-06-18T01:21:49.684Z,20.37
2018-06-18T01:24:57.456Z,20.40
2018-06-18T01:27:25.874Z,20.36
2018-06-18T01:29:54.768Z,20.41
2018-06-18T01:32:23.159Z,20.38
2018-06-18T01:34:51.498Z,20.09
2018-06-18T01:37:19.782Z,19.93
2018-06-18T01:39:48.085Z,19.90
2018-06-18T01:42:16.394Z,20.03
2018-06-18T01:44:44.857Z,20.14
2018-06-18T01:47:14.022Z,20.16
2018-06-18T01:49:42.374Z,20.21
2018-06-18T01:52:10.654Z,20.15
2018-06-18T01:54:39.035Z,20.10
2018-06-18T01:57:07.352Z,20.18
2018-06-18T01:59:35.642Z,20.22
2018-06-18T02:02:04.230Z,20.27
2018-06-18T02:04:32.764Z,20.32
2018-06-18T02:07:01.114Z,20.25
2018-06-18T02:09:29.466Z,20.28
2018-06-18T02:11:58.234Z,20.32
2018-06-18T02:14:26.520Z,20.25
2018-06-18T02:16:55.193Z,20.27
2018-06-18T02:19:23.514Z,20.30
2018-06-18T02:21:51.877Z,20.26
2018-06-18T02:24:20.312Z,20.13
2018-06-18T02:26:52.900Z,20.06
2018-06-18T02:30:30.413Z,20.09
2018-06-18T02:33:04.533Z,20.16
2018-06-18T02:35:38.190Z,19.94
2018-06-18T02:38:11.956Z,19.88
2018-06-18T02:40:45.085Z,19.79
2018-06-18T02:43:27.227Z,19.69
2018-06-18T02:45:55.547Z,19.52
2018-06-18T02:48:23.800Z,19.57
2018-06-18T02:50:52.130Z,19.63
2018-06-18T02:56:14.149Z,19.85
2018-06-18T02:58:42.436Z,19.93
2018-06-18T03:01:11.255Z,19.98
2018-06-18T03:09:39.044Z,19.84
2018-06-18T03:12:07.656Z,19.90
2018-06-18T03:14:41.094Z,19.94
2018-06-18T03:17:09.485Z,19.84
2018-06-18T03:19:43.184Z,19.75
2018-06-18T03:22:16.908Z,19.51
2018-06-18T03:33:32.255Z,19.37
2018-06-18T03:36:00.578Z,19.30
2018-06-18T03:38:28.876Z,19.09
2018-06-18T03:40:57.186Z,19.08
2018-06-18T03:43:25.792Z,19.03
2018-06-18T03:45:54.241Z,18.90
2018-06-18T03:48:22.878Z,18.87
2018-06-18T03:50:51.266Z,18.86
2018-06-18T03:53:33.418Z,18.80
2018-06-18T03:56:02.017Z,18.77
2018-06-18T03:58:30.498Z,18.64
2018-06-18T04:02:15.750Z,18.54
2018-06-18T04:10:48.576Z,18.56
2018-06-18T04:13:26.386Z,18.52
2018-06-18T04:15:54.633Z,18.60
2018-06-18T04:18:22.209Z,18.68
2018-06-18T04:20:51.226Z,18.76
2018-06-18T04:23:19.760Z,18.78
2018-06-18T04:25:48.366Z,18.79
2018-06-18T04:28:16.767Z,18.81
2018-06-18T04:30:46.069Z,18.85
2018-06-18T04:33:22.318Z,18.89
2018-06-18T04:35:51.304Z,18.86
2018-06-18T04:38:19.580Z,18.90
2018-06-18T04:40:48.673Z,18.94
2018-06-18T04:43:41.105Z,18.97
2018-06-18T04:46:25.394Z,19.08
2018-06-18T04:48:59.134Z,19.11
2018-06-18T04:51:27.897Z,19.18
2018-06-18T04:54:01.741Z,19.24
2018-06-18T04:56:30.988Z,19.25
2018-06-18T04:58:59.786Z,19.24
2018-06-18T05:01:30.384Z,19.18
2018-06-18T05:03:59.191Z,19.13
2018-06-18T05:06:29.461Z,19.04
2018-06-18T05:10:05.340Z,18.99
2018-06-18T05:12:34.656Z,18.99
2018-06-18T05:15:03.883Z,18.91
2018-06-18T05:17:32.555Z,18.97
2018-06-18T05:20:01.255Z,18.91
2018-06-18T05:22:29.790Z,18.96
2018-06-18T05:24:58.462Z,19.04
2018-06-18T05:27:31.738Z,19.11
2018-06-18T05:30:18.961Z,19.19
2018-06-18T05:32:47.310Z,19.21
2018-06-18T05:35:15.938Z,19.23
2018-06-18T05:37:52.640Z,19.24
2018-06-18T05:40:22.985Z,19.26
2018-06-18T05:42:52.758Z,19.24
2018-06-18T05:45:39.920Z,19.27
2018-06-18T05:48:09.550Z,19.30
2018-06-18T05:50:38.547Z,19.27
2018-06-18T05:53:07.765Z,19.24
2018-06-18T05:55:36.404Z,19.21
2018-06-18T05:58:04.989Z,19.13
2018-06-18T06:00:33.443Z,19.13
2018-06-18T06:03:01.832Z,19.12
2018-06-18T06:05:30.346Z,19.07
2018-06-18T06:07:58.789Z,19.06
2018-06-18T06:10:27.626Z,19.06
2018-06-18T06:12:56.318Z,19.08
2018-06-18T06:15:28.518Z,19.07
2018-06-18T06:17:57.140Z,19.05
2018-06-18T06:20:25.587Z,19.05
2018-06-18T06:23:03.118Z,19.14
2018-06-18T06:25:32.970Z,19.24
2018-06-18T06:28:01.442Z,19.21
2018-06-18T06:30:29.832Z,19.24
2018-06-18T06:32:58.364Z,19.24
2018-06-18T06:35:30.505Z,19.23
2018-06-18T06:37:59.020Z,19.15
2018-06-18T06:40:27.537Z,19.09
2018-06-18T06:42:56.088Z,19.06
2018-06-18T06:45:24.666Z,19.08
2018-06-18T06:47:53.137Z,19.04
2018-06-18T06:50:21.565Z,19.04
2018-06-18T06:52:50.028Z,19.07
2018-06-18T06:55:18.642Z,19.10
2018-06-18T06:57:47.054Z,19.11
2018-06-18T07:00:15.582Z,19.14
2018-06-18T07:02:45.583Z,19.22
2018-06-18T07:05:14.466Z,19.28
2018-06-18T07:07:43.058Z,19.25
2018-06-18T07:10:11.549Z,19.17
2018-06-18T07:12:41.400Z,19.01
2018-06-18T07:15:10.074Z,18.93
2018-06-18T07:17:39.764Z,18.69
2018-06-18T07:20:08.420Z,18.69
2018-06-18T07:22:37.225Z,18.86
2018-06-18T07:25:05.712Z,18.99
2018-06-18T07:27:34.190Z,18.95
2018-06-18T07:30:02.597Z,18.91
2018-06-18T07:32:31.072Z,18.93
2018-06-18T07:34:59.594Z,18.95
2018-06-18T07:37:28.358Z,18.90
2018-06-18T07:39:57.054Z,18.96
2018-06-18T07:42:25.767Z,19.15
2018-06-18T07:44:54.367Z,19.27
2018-06-18T07:47:23.427Z,19.18
2018-06-18T07:49:52.308Z,19.05
2018-06-18T07:52:22.288Z,18.94
2018-06-18T07:54:50.886Z,18.92
2018-06-18T07:57:19.369Z,18.90
2018-06-18T07:59:47.817Z,18.96
2018-06-18T08:02:16.339Z,18.93
2018-06-18T08:04:44.790Z,18.91
2018-06-18T08:07:13.352Z,18.93
2018-06-18T08:09:42.119Z,18.95
2018-06-18T08:12:10.574Z,18.75
2018-06-18T08:14:39.270Z,18.67
2018-06-18T08:17:07.803Z,18.63
2018-06-18T08:19:36.265Z,18.63
2018-06-18T08:22:04.771Z,18.69
2018-06-18T08:24:35.892Z,18.76
2018-06-18T08:27:07.135Z,18.77
2018-06-18T08:29:35.576Z,18.87
2018-06-18T08:32:04.154Z,18.85
2018-06-18T08:34:37.717Z,18.92
2018-06-18T08:37:06.536Z,19.02
2018-06-18T08:39:34.974Z,18.98
2018-06-18T08:42:03.500Z,18.95
2018-06-18T08:44:32.059Z,18.98
2018-06-18T08:47:01.012Z,19.05
2018-06-18T08:49:29.494Z,19.14
2018-06-18T08:52:03.339Z,19.20
2018-06-18T08:54:37.110Z,19.24
2018-06-18T08:57:11.091Z,19.21
2018-06-18T08:59:44.796Z,19.22
2018-06-18T09:02:13.332Z,19.21
2018-06-18T09:04:49.374Z,19.27
2018-06-18T09:07:21.902Z,19.49
2018-06-18T09:09:50.358Z,19.72
2018-06-18T09:12:18.929Z,19.88
2018-06-18T09:14:47.456Z,20.21
2018-06-18T09:17:15.918Z,20.34
2018-06-18T09:19:44.586Z,20.44
2018-06-18T09:22:13.247Z,20.58
2018-06-18T09:24:42.072Z,20.67
2018-06-18T09:27:12.568Z,20.68
2018-06-18T09:30:11.792Z,20.63
2018-06-18T09:32:40.880Z,20.68
2018-06-18T09:35:09.258Z,20.80
2018-06-18T09:37:38.152Z,20.87
2018-06-18T09:40:06.725Z,20.91
2018-06-18T09:42:35.262Z,20.92
2018-06-18T09:45:04.171Z,21.00
2018-06-18T09:47:32.804Z,21.01
2018-06-18T09:51:04.247Z,21.07
2018-06-18T09:53:37.920Z,21.14
2018-06-18T09:56:11.760Z,21.19
2018-06-18T09:58:45.482Z,21.22
2018-06-18T10:01:22.124Z,21.28
2018-06-18T10:03:51.314Z,21.34
2018-06-18T10:06:20.690Z,21.49
2018-06-18T10:08:49.368Z,21.56
2018-06-18T10:11:18.095Z,21.62
2018-06-18T10:13:46.638Z,21.60
2018-06-18T10:16:15.108Z,21.57
2018-06-18T10:18:43.751Z,21.57
2018-06-18T10:21:12.320Z,21.62
2018-06-18T10:23:41.790Z,21.73
2018-06-18T10:26:10.248Z,21.71
2018-06-18T10:28:39.356Z,21.86
2018-06-18T10:31:07.993Z,21.92
2018-06-18T10:33:41.797Z,21.98
2018-06-18T10:36:15.296Z,22.11
2018-06-18T10:38:49.014Z,22.15
2018-06-18T10:41:23.149Z,22.21
2018-06-18T10:43:51.697Z,22.22
2018-06-18T10:46:20.156Z,22.44
2018-06-18T10:48:48.723Z,22.53
2018-06-18T10:51:17.310Z,22.39
2018-06-18T10:53:45.686Z,22.14
2018-06-18T10:56:14.126Z,21.98
2018-06-18T10:58:42.897Z,22.03
2018-06-18T11:01:13.733Z,22.28
2018-06-18T11:03:42.140Z,22.18
2018-06-18T11:06:16.233Z,22.08
2018-06-18T11:08:44.941Z,22.03
2018-06-18T11:11:13.595Z,22.13
2018-06-18T11:13:42.131Z,22.12
2018-06-18T11:16:10.848Z,22.06
2018-06-18T11:18:44.724Z,22.15
2018-06-18T11:21:18.378Z,22.22
2018-06-18T11:23:51.994Z,22.20
2018-06-18T11:26:25.714Z,22.22
2018-06-18T11:28:54.181Z,22.41
2018-06-18T11:31:22.809Z,22.74
2018-06-18T11:33:51.443Z,22.97
2018-06-18T11:36:19.911Z,23.06
2018-06-18T11:38:48.529Z,22.94
2018-06-18T11:41:17.206Z,22.82
2018-06-18T11:43:45.676Z,22.74
2018-06-18T11:46:14.146Z,22.93
2018-06-18T11:48:42.657Z,23.16
2018-06-18T11:51:11.211Z,23.29
2018-06-18T11:53:39.670Z,23.19
2018-06-18T11:59:17.335Z,22.98
2018-06-18T12:01:51.280Z,23.07
2018-06-18T12:04:25.433Z,23.41
2018-06-18T12:06:59.296Z,23.82
2018-06-18T12:09:32.619Z,23.86
2018-06-18T12:12:01.142Z,23.71
2018-06-18T12:14:30.111Z,23.58
2018-06-18T12:16:58.572Z,23.48
2018-06-18T12:19:27.195Z,23.83
2018-06-18T12:21:55.621Z,23.91
2018-06-18T12:24:29.865Z,23.77
2018-06-18T12:26:59.091Z,23.57
2018-06-18T12:29:27.617Z,23.42
2018-06-18T12:31:56.210Z,23.38
2018-06-18T12:34:29.940Z,23.40
2018-06-18T12:36:58.382Z,23.41
2018-06-18T12:39:27.362Z,23.42
2018-06-18T12:42:00.642Z,23.43
2018-06-18T12:44:34.061Z,23.48
2018-06-18T12:48:05.444Z,23.51
2018-06-18T12:50:39.262Z,23.42
2018-06-18T12:53:12.989Z,23.36
2018-06-18T12:55:46.672Z,23.35
2018-06-18T12:58:15.832Z,23.30
2018-06-18T13:00:46.144Z,23.25
2018-06-18T13:03:16.618Z,23.22
2018-06-18T13:05:46.136Z,23.19
2018-06-18T13:08:15.972Z,23.15
2018-06-18T13:10:45.845Z,23.13
2018-06-18T13:13:14.254Z,23.12
2018-06-18T13:15:44.247Z,23.23
2018-06-18T13:18:13.424Z,23.34
2018-06-18T13:20:44.398Z,23.43
2018-06-18T13:23:12.932Z,23.55
2018-06-18T13:25:41.671Z,23.65
2018-06-18T13:28:15.265Z,23.99
2018-06-18T13:30:43.702Z,24.25
2018-06-18T13:33:12.332Z,24.40
2018-06-18T13:35:40.954Z,24.37
2018-06-18T13:38:14.848Z,24.28
2018-06-18T13:40:48.734Z,24.13
2018-06-18T13:43:22.595Z,24.02
2018-06-18T13:46:58.068Z,24.02
2018-06-18T13:49:31.846Z,23.92
2018-06-18T13:52:00.627Z,23.89
2018-06-18T13:54:29.194Z,23.99
2018-06-18T13:56:57.666Z,24.25
2018-06-18T13:59:26.193Z,24.48
2018-06-18T14:01:54.645Z,24.63
2018-06-18T14:04:23.040Z,24.58
2018-06-18T14:06:51.534Z,24.57
2018-06-18T14:09:20.120Z,24.73
2018-06-18T14:11:48.576Z,24.79
2018-06-18T14:14:17.335Z,24.69
2018-06-18T14:16:45.898Z,24.84
2018-06-18T14:19:19.774Z,24.84
2018-06-18T14:21:48.289Z,24.69
2018-06-18T14:24:16.758Z,24.81
2018-06-18T14:26:45.348Z,24.83
2018-06-18T14:29:19.086Z,24.81
2018-06-18T14:31:52.808Z,24.73
2018-06-18T14:34:26.485Z,24.71
2018-06-18T14:37:00.306Z,24.76
2018-06-18T14:39:34.666Z,24.85
2018-06-18T14:42:03.813Z,25.11
2018-06-18T14:44:33.616Z,25.39
2018-06-18T14:47:02.058Z,25.52
2018-06-18T14:49:30.572Z,25.52
2018-06-18T14:51:59.236Z,25.54
2018-06-18T14:54:28.040Z,25.36
2018-06-18T14:57:00.249Z,25.01
2018-06-18T14:59:39.207Z,24.74
2018-06-18T15:02:09.244Z,24.66
2018-06-18T15:04:43.122Z,24.86
2018-06-18T15:07:11.891Z,24.87
2018-06-18T15:09:41.010Z,24.95
2018-06-18T15:12:10.718Z,24.95
2018-06-18T15:14:39.366Z,24.76
2018-06-18T15:17:07.957Z,24.51
2018-06-18T15:19:36.907Z,24.38
2018-06-18T15:22:08.297Z,24.31
2018-06-18T15:24:48.835Z,24.12
2018-06-18T15:27:18.204Z,24.09
2018-06-18T15:29:47.133Z,24.20
2018-06-18T15:32:16.685Z,24.35
2018-06-18T15:34:45.728Z,24.43
2018-06-18T15:37:14.301Z,24.50
2018-06-18T15:39:43.042Z,24.55
2018-06-18T15:42:11.657Z,24.53
2018-06-18T15:44:40.874Z,24.52
2018-06-18T15:47:09.277Z,24.56
2018-06-18T15:49:37.681Z,24.63
2018-06-18T15:52:06.181Z,24.67
2018-06-18T15:57:27.845Z,24.57
2018-06-18T15:59:56.616Z,24.53
2018-06-18T16:02:25.364Z,24.52
2018-06-18T16:04:53.741Z,24.66
2018-06-18T16:07:22.169Z,24.67
2018-06-18T16:09:50.743Z,24.69
2018-06-18T16:12:19.271Z,24.64
2018-06-18T16:14:47.849Z,24.60
2018-06-18T16:17:16.737Z,24.43
2018-06-18T16:19:45.645Z,24.35
2018-06-18T16:22:14.245Z,24.31
2018-06-18T16:24:43.200Z,24.32
2018-06-18T16:27:11.844Z,24.27
2018-06-18T16:29:41.205Z,24.22
2018-06-18T16:32:09.936Z,24.22
2018-06-18T16:34:38.591Z,24.22
2018-06-18T16:37:07.126Z,24.21
2018-06-18T16:39:35.675Z,24.20
2018-06-18T16:42:06.217Z,24.21
2018-06-18T16:44:35.189Z,24.22
2018-06-18T16:47:04.035Z,24.23
2018-06-18T16:49:33.271Z,24.26
2018-06-18T16:52:02.504Z,24.27
2018-06-18T16:54:31.200Z,24.28
2018-06-18T16:57:00.171Z,24.26
2018-06-18T16:59:32.959Z,24.23
2018-06-18T17:02:02.134Z,24.12
2018-06-18T17:04:30.980Z,24.02
2018-06-18T17:07:00.041Z,23.99
2018-06-18T17:09:28.525Z,23.97
2018-06-18T17:11:57.403Z,23.96
2018-06-18T17:14:25.991Z,23.99
2018-06-18T17:16:54.639Z,24.13
2018-06-18T17:19:23.857Z,24.14
2018-06-18T17:21:52.563Z,24.05
2018-06-18T17:24:21.070Z,23.99
2018-06-18T17:26:49.583Z,24.00
2018-06-18T17:29:20.799Z,23.90
2018-06-18T17:31:50.536Z,23.90
2018-06-18T17:34:19.196Z,23.91
2018-06-18T17:36:48.039Z,23.89
2018-06-18T17:39:16.743Z,23.83
2018-06-18T17:41:45.634Z,23.91
2018-06-18T17:44:14.297Z,23.90
2018-06-18T17:46:43.417Z,23.83
2018-06-18T17:49:12.131Z,23.78
2018-06-18T17:51:41.197Z,23.78
2018-06-18T17:54:09.931Z,23.83
2018-06-18T17:56:38.816Z,23.84
2018-06-18T17:59:07.323Z,23.85
2018-06-18T18:01:36.005Z,23.75
2018-06-18T18:04:04.938Z,23.73
2018-06-18T18:06:34.082Z,23.76
2018-06-18T18:09:02.944Z,23.69
2018-06-18T18:11:32.085Z,23.66
2018-06-18T18:14:10.004Z,23.63
2018-06-18T18:16:39.265Z,23.66
2018-06-18T18:19:07.883Z,23.64
2018-06-18T18:21:36.438Z,23.58
2018-06-18T18:24:05.320Z,23.54
2018-06-18T18:26:33.949Z,23.54
2018-06-18T18:29:02.989Z,23.53
2018-06-18T18:31:32.081Z,23.50
2018-06-18T18:34:01.416Z,23.48
2018-06-18T18:36:30.233Z,23.45
2018-06-18T18:38:59.421Z,23.48
2018-06-18T18:41:28.492Z,23.44
2018-06-18T18:43:57.781Z,23.38
2018-06-18T18:46:26.436Z,23.40
2018-06-18T18:48:55.199Z,23.42
2018-06-18T18:51:24.671Z,23.36
2018-06-18T18:53:53.216Z,23.31
2018-06-18T18:56:33.157Z,23.29
2018-06-18T18:59:37.094Z,23.24
2018-06-18T19:02:08.182Z,23.21
2018-06-18T19:04:53.601Z,23.14
2018-06-18T19:07:41.545Z,23.11
2018-06-18T19:10:21.638Z,23.09
2018-06-18T19:12:51.206Z,23.06
2018-06-18T19:15:25.159Z,23.04
2018-06-18T19:17:54.037Z,23.01
2018-06-18T19:20:35.027Z,23.01
2018-06-18T19:23:04.015Z,22.99
2018-06-18T19:25:46.258Z,23.00
2018-06-18T19:28:14.959Z,23.00
2018-06-18T19:30:46.563Z,22.97
2018-06-18T19:33:19.311Z,22.91
2018-06-18T19:35:47.785Z,22.87
2018-06-18T19:38:16.410Z,22.83
2018-06-18T19:40:45.131Z,22.81
2018-06-18T19:43:13.739Z,22.80
2018-06-18T19:45:51.255Z,22.80
2018-06-18T19:48:28.016Z,22.74
2018-06-18T19:50:57.581Z,22.68
2018-06-18T19:53:26.453Z,22.66
2018-06-18T19:55:56.510Z,22.64
2018-06-18T19:58:25.657Z,22.62
2018-06-18T20:00:57.278Z,22.59
2018-06-18T20:03:30.492Z,22.54
2018-06-18T20:05:59.149Z,22.48
2018-06-18T20:08:30.839Z,22.45
2018-06-18T20:10:59.719Z,22.52
2018-06-18T20:13:28.345Z,22.56
2018-06-18T20:15:57.945Z,22.54
2018-06-18T20:18:27.377Z,22.44
2018-06-18T20:20:56.753Z,22.38
2018-06-18T20:23:28.669Z,22.32
2018-06-18T20:26:02.079Z,22.29
2018-06-18T20:28:30.587Z,22.26
2018-06-18T20:30:59.875Z,22.28
2018-06-18T20:33:29.425Z,22.21
2018-06-18T20:36:08.729Z,22.18
2018-06-18T20:38:37.419Z,22.19
2018-06-18T20:41:06.697Z,22.10
2018-06-18T20:43:46.260Z,22.05
2018-06-18T20:46:16.081Z,21.97
2018-06-18T20:48:45.671Z,21.98
2018-06-18T20:51:14.374Z,21.95
2018-06-18T20:53:43.243Z,21.87
2018-06-18T20:56:12.056Z,21.79
2018-06-18T20:58:41.271Z,21.76
2018-06-18T21:01:12.366Z,21.78
2018-06-18T21:03:47.135Z,21.76
2018-06-18T21:06:15.855Z,21.76
2018-06-18T21:08:44.529Z,21.69
2018-06-18T21:11:13.255Z,21.69
2018-06-18T21:13:42.138Z,21.69
2018-06-18T21:16:11.695Z,21.62
2018-06-18T21:18:40.039Z,21.58
2018-06-18T21:21:08.573Z,21.53
2018-06-18T21:23:39.587Z,21.49
2018-06-18T21:26:09.071Z,21.48
2018-06-18T21:28:37.594Z,21.48
2018-06-18T21:31:06.356Z,21.42
2018-06-18T21:33:35.099Z,21.38
2018-06-18T21:36:03.725Z,21.39
2018-06-18T21:38:32.919Z,21.28
2018-06-18T21:41:01.865Z,21.15
2018-06-18T21:43:30.675Z,21.02
2018-06-18T21:45:59.640Z,20.98
2018-06-18T21:48:28.896Z,20.94
2018-06-18T21:50:58.354Z,20.93
2018-06-18T21:53:27.387Z,20.95
2018-06-18T21:55:56.285Z,20.95
2018-06-18T21:58:24.775Z,20.93
2018-06-18T22:00:53.959Z,20.83
2018-06-18T22:03:22.509Z,20.79
2018-06-18T22:05:56.232Z,20.78
2018-06-18T22:08:26.239Z,20.81
2018-06-18T22:10:55.060Z,20.86
2018-06-18T22:13:23.629Z,20.86
2018-06-18T22:15:52.333Z,20.74
2018-06-18T22:18:21.066Z,20.67
2018-06-18T22:20:49.774Z,20.65
2018-06-18T22:23:18.216Z,20.71
2018-06-18T22:28:53.097Z,20.51
2018-06-18T22:31:22.184Z,20.38
2018-06-18T22:33:51.424Z,20.31
2018-06-18T22:36:19.907Z,20.38
2018-06-18T22:38:48.632Z,20.34
2018-06-18T22:41:17.786Z,20.25
2018-06-18T22:43:46.860Z,20.18
2018-06-18T22:46:15.468Z,20.11
2018-06-18T22:48:43.995Z,20.05
2018-06-18T22:51:12.831Z,20.00
2018-06-18T22:59:35.960Z,19.80
2018-06-18T23:02:04.496Z,19.86
2018-06-18T23:04:32.912Z,19.85
2018-06-18T23:07:01.327Z,19.86
2018-06-18T23:09:29.803Z,19.81
2018-06-18T23:11:58.223Z,19.80
2018-06-18T23:14:40.410Z,19.88
2018-06-18T23:17:08.768Z,19.83
2018-06-18T23:19:37.262Z,19.83
2018-06-18T23:22:07.030Z,19.78
2018-06-18T23:24:37.054Z,19.81
2018-06-18T23:27:06.491Z,19.78
2018-06-18T23:29:35.002Z,19.76
2018-06-18T23:32:03.313Z,19.81
2018-06-18T23:34:31.984Z,19.77
2018-06-18T23:37:00.323Z,19.80
2018-06-18T23:39:28.683Z,19.77
2018-06-18T23:41:58.024Z,19.70
2018-06-18T23:44:45.183Z,19.63
2018-06-18T23:47:13.521Z,19.79
2018-06-18T23:49:41.847Z,19.86
2018-06-18T23:52:10.187Z,19.83
2018-06-18T23:54:38.560Z,19.74
2018-06-18T23:57:06.914Z,19.70
2018-06-18T23:59:35.199Z,19.63
